createdAt,value
2022-10-14T00:01:25.873Z,11.40
2022-10-14T00:03:54.990Z,11.40
2022-10-14T00:06:25.864Z,11.40
2022-10-14T00:08:54.283Z,11.40
2022-10-14T00:11:25.163Z,11.40
2022-10-14T00:14:21.713Z,11.30
2022-10-14T00:16:54.113Z,11.30
2022-10-14T00:19:21.968Z,11.30
2022-10-14T00:21:51.584Z,11.30
2022-10-14T00:24:19.663Z,11.30
2022-10-14T00:26:47.256Z,11.30
2022-10-14T00:29:19.547Z,11.30
2022-10-14T00:31:48.600Z,11.30
2022-10-14T00:34:18.674Z,11.30
2022-10-14T00:36:46.397Z,11.30
2022-10-14T00:39:19.624Z,11.30
2022-10-14T00:41:47.705Z,11.30
2022-10-14T00:44:15.330Z,11.30
2022-10-14T00:46:46.176Z,11.30
2022-10-14T00:49:18.882Z,11.30
2022-10-14T00:51:57.023Z,11.30
2022-10-14T00:54:35.316Z,11.30
2022-10-14T00:57:04.001Z,11.30
2022-10-14T00:59:33.758Z,11.30
2022-10-14T01:02:03.382Z,11.30
2022-10-14T01:04:31.670Z,11.30
2022-10-14T01:07:13.224Z,11.30
2022-10-14T01:09:49.069Z,11.30
2022-10-14T01:12:30.260Z,11.30
2022-10-14T01:15:38.843Z,11.30
2022-10-14T01:18:21.571Z,11.30
2022-10-14T01:21:09.837Z,11.30
2022-10-14T01:24:06.765Z,11.30
2022-10-14T01:26:52.480Z,11.30
2022-10-14T01:29:45.877Z,11.30
2022-10-14T01:32:21.961Z,11.20
2022-10-14T01:35:03.888Z,11.20
2022-10-14T01:37:37.307Z,11.20
2022-10-14T01:40:16.038Z,11.20
2022-10-14T01:42:53.577Z,11.20
2022-10-14T01:45:23.503Z,11.10
2022-10-14T01:47:53.938Z,11.10
2022-10-14T01:50:25.186Z,11.10
2022-10-14T01:52:59.723Z,11.00
2022-10-14T01:55:33.107Z,11.00
2022-10-14T01:58:04.105Z,10.90
2022-10-14T02:00:32.173Z,10.90
2022-10-14T02:03:02.904Z,10.90
2022-10-14T02:05:46.339Z,10.80
2022-10-14T02:08:36.776Z,10.80
2022-10-14T02:11:15.932Z,10.80
2022-10-14T02:14:02.207Z,10.80
2022-10-14T02:16:56.862Z,10.80
2022-10-14T02:19:33.774Z,10.80
2022-10-14T02:22:10.382Z,10.80
2022-10-14T02:24:45.925Z,10.80
2022-10-14T02:27:20.324Z,10.80
2022-10-14T02:29:50.261Z,10.80
2022-10-14T02:32:20.990Z,10.80
2022-10-14T02:34:54.268Z,10.80
2022-10-14T02:37:23.816Z,10.80
2022-10-14T02:40:03.103Z,10.80
2022-10-14T02:42:37.952Z,10.80
2022-10-14T02:45:07.920Z,10.80
2022-10-14T02:47:36.098Z,10.80
2022-10-14T02:50:04.714Z,10.80
2022-10-14T02:52:32.858Z,10.80
2022-10-14T02:55:00.538Z,10.80
2022-10-14T02:57:28.211Z,10.90
2022-10-14T02:59:57.933Z,10.90
2022-10-14T03:02:27.650Z,10.90
2022-10-14T03:04:58.393Z,10.90
2022-10-14T03:07:26.549Z,10.90
2022-10-14T03:09:57.448Z,10.90
2022-10-14T03:12:26.332Z,10.90
2022-10-14T03:14:56.760Z,10.90
2022-10-14T03:17:27.096Z,10.90
2022-10-14T03:20:01.138Z,11.00
2022-10-14T03:22:30.559Z,11.00
2022-10-14T03:25:01.306Z,11.00
2022-10-14T03:27:40.007Z,11.00
2022-10-14T03:30:12.165Z,11.00
2022-10-14T03:32:51.474Z,11.00
2022-10-14T03:35:40.451Z,11.10
2022-10-14T03:38:12.609Z,11.10
2022-10-14T03:40:43.248Z,11.10
2022-10-14T03:43:13.300Z,11.00
2022-10-14T03:45:50.481Z,11.00
2022-10-14T03:48:20.892Z,11.00
2022-10-14T03:50:49.296Z,11.00
2022-10-14T03:53:19.674Z,11.00
2022-10-14T03:55:48.171Z,11.00
2022-10-14T03:58:16.156Z,11.00
2022-10-14T04:00:50.850Z,11.10
2022-10-14T04:03:42.299Z,11.10
2022-10-14T04:06:15.002Z,11.10
2022-10-14T04:08:45.124Z,11.10
2022-10-14T04:11:24.193Z,11.10
2022-10-14T04:14:01.097Z,11.10
2022-10-14T04:16:31.666Z,11.10
2022-10-14T04:19:15.286Z,11.10
2022-10-14T04:21:43.279Z,11.10
2022-10-14T04:24:16.626Z,11.20
2022-10-14T04:26:52.888Z,11.10
2022-10-14T04:29:33.133Z,11.20
2022-10-14T04:32:07.348Z,11.20
2022-10-14T04:34:41.256Z,11.20
2022-10-14T04:37:11.649Z,11.20
2022-10-14T04:40:08.822Z,11.20
2022-10-14T04:42:43.107Z,11.20
2022-10-14T04:45:20.181Z,11.20
2022-10-14T04:47:55.033Z,11.20
2022-10-14T04:50:26.172Z,11.20
2022-10-14T04:53:29.120Z,11.20
2022-10-14T04:56:07.959Z,11.20
2022-10-14T04:58:43.515Z,11.30
2022-10-14T05:01:11.221Z,11.20
2022-10-14T05:03:41.802Z,11.20
2022-10-14T05:06:13.896Z,11.30
2022-10-14T05:08:45.218Z,11.30
2022-10-14T05:11:17.419Z,11.30
2022-10-14T05:13:53.943Z,11.30
2022-10-14T05:16:23.699Z,11.30
2022-10-14T05:18:54.539Z,11.30
2022-10-14T05:21:23.748Z,11.30
2022-10-14T05:24:20.428Z,11.30
2022-10-14T05:26:48.482Z,11.30
2022-10-14T05:29:16.741Z,11.30
2022-10-14T05:31:44.946Z,11.30
2022-10-14T05:34:34.057Z,11.30
2022-10-14T05:37:02.932Z,11.30
2022-10-14T05:39:38.515Z,11.30
2022-10-14T05:42:06.367Z,11.30
2022-10-14T05:44:37.156Z,11.30
2022-10-14T05:47:05.708Z,11.40
2022-10-14T05:49:34.962Z,11.40
2022-10-14T05:52:05.368Z,11.40
2022-10-14T05:54:34.216Z,11.40
2022-10-14T05:57:04.407Z,11.40
2022-10-14T05:59:34.847Z,11.40
2022-10-14T06:02:03.266Z,11.40
2022-10-14T06:04:31.222Z,11.40
2022-10-14T06:06:59.455Z,11.40
2022-10-14T06:09:27.220Z,11.30
2022-10-14T06:11:55.014Z,11.30
2022-10-14T06:14:23.463Z,11.30
2022-10-14T06:16:52.713Z,11.30
2022-10-14T06:19:20.596Z,11.30
2022-10-14T06:21:48.408Z,11.30
2022-10-14T06:24:16.789Z,11.30
2022-10-14T06:26:48.949Z,11.30
2022-10-14T06:29:18.585Z,11.30
2022-10-14T06:31:46.295Z,11.30
2022-10-14T06:34:14.240Z,11.40
2022-10-14T06:36:42.183Z,11.50
2022-10-14T06:39:10.961Z,11.50
2022-10-14T06:41:38.727Z,11.60
2022-10-14T06:44:06.637Z,11.70
2022-10-14T06:46:34.365Z,11.80
2022-10-14T06:49:02.118Z,11.80
2022-10-14T06:51:35.943Z,11.80
2022-10-14T06:54:04.108Z,11.80
2022-10-14T06:56:31.965Z,11.80
2022-10-14T06:59:01.828Z,11.80
2022-10-14T07:01:30.645Z,11.90
2022-10-14T07:03:58.491Z,11.90
2022-10-14T07:06:26.547Z,11.90
2022-10-14T07:09:08.905Z,11.90
2022-10-14T07:11:36.601Z,12.00
2022-10-14T07:14:04.367Z,12.00
2022-10-14T07:16:37.028Z,12.00
2022-10-14T07:19:04.945Z,12.10
2022-10-14T07:21:35.809Z,12.20
2022-10-14T07:24:06.468Z,12.20
2022-10-14T07:26:34.246Z,12.30
2022-10-14T07:29:06.878Z,12.40
2022-10-14T07:31:35.113Z,12.40
2022-10-14T07:34:06.678Z,12.50
2022-10-14T07:36:34.845Z,12.60
2022-10-14T07:39:05.865Z,12.60
2022-10-14T07:41:34.686Z,12.70
2022-10-14T07:44:08.580Z,12.80
2022-10-14T07:46:39.318Z,12.90
2022-10-14T07:49:18.157Z,13.00
2022-10-14T07:51:47.388Z,13.10
2022-10-14T07:54:18.341Z,13.30
2022-10-14T07:56:49.014Z,13.50
2022-10-14T07:59:18.854Z,13.70
2022-10-14T08:01:53.597Z,13.90
2022-10-14T08:04:21.381Z,14.10
2022-10-14T08:06:49.201Z,14.40
2022-10-14T08:09:18.578Z,14.70
2022-10-14T08:11:46.790Z,15.10
2022-10-14T08:14:14.712Z,15.50
2022-10-14T08:16:42.508Z,15.80
2022-10-14T08:19:14.667Z,16.00
2022-10-14T08:21:43.720Z,16.20
2022-10-14T08:24:11.696Z,16.30
2022-10-14T08:26:48.972Z,16.30
2022-10-14T08:29:17.085Z,16.20
2022-10-14T08:31:44.677Z,16.10
2022-10-14T08:34:12.407Z,16.00
2022-10-14T08:36:44.100Z,16.00
2022-10-14T08:39:16.876Z,15.90
2022-10-14T08:42:06.782Z,15.80
2022-10-14T08:44:49.852Z,15.70
2022-10-14T08:47:23.825Z,15.70
2022-10-14T08:50:01.649Z,15.70
2022-10-14T08:52:55.860Z,15.80
2022-10-14T08:55:35.486Z,15.90
2022-10-14T08:58:41.594Z,16.00
2022-10-14T09:01:22.360Z,16.20
2022-10-14T09:03:52.433Z,16.30
2022-10-14T09:06:26.747Z,16.40
2022-10-14T09:08:58.676Z,16.40
2022-10-14T09:11:30.787Z,16.50
2022-10-14T09:14:02.827Z,16.50
2022-10-14T09:16:35.800Z,16.60
2022-10-14T09:19:31.381Z,16.60
2022-10-14T09:22:00.534Z,16.70
2022-10-14T09:24:35.999Z,16.70
2022-10-14T09:27:05.935Z,16.80
2022-10-14T09:29:59.444Z,16.80
2022-10-14T09:32:32.944Z,16.90
2022-10-14T09:35:07.486Z,17.10
2022-10-14T09:37:37.264Z,17.20
2022-10-14T09:40:30.023Z,17.30
2022-10-14T09:43:09.075Z,17.40
2022-10-14T09:46:07.303Z,17.40
2022-10-14T09:48:45.052Z,17.50
2022-10-14T09:51:18.834Z,17.70
2022-10-14T09:53:51.980Z,17.70
2022-10-14T09:56:42.052Z,17.80
2022-10-14T09:59:28.900Z,17.70
2022-10-14T10:02:00.727Z,17.70
2022-10-14T10:04:42.101Z,17.70
2022-10-14T10:07:32.590Z,17.80
2022-10-14T10:10:01.466Z,18.00
2022-10-14T10:12:35.794Z,18.10
2022-10-14T10:15:07.023Z,18.30
2022-10-14T10:17:40.629Z,18.60
2022-10-14T10:20:26.474Z,18.70
2022-10-14T10:22:56.650Z,18.70
2022-10-14T10:25:26.749Z,18.60
2022-10-14T10:28:00.368Z,18.40
2022-10-14T10:31:07.264Z,18.20
2022-10-14T10:33:49.425Z,18.10
2022-10-14T10:36:48.022Z,18.10
2022-10-14T10:39:54.881Z,18.00
2022-10-14T10:42:40.921Z,17.90
2022-10-14T10:45:37.089Z,17.90
2022-10-14T10:48:26.024Z,17.70
2022-10-14T10:51:23.820Z,17.60
2022-10-14T10:54:05.011Z,17.50
2022-10-14T10:56:42.889Z,17.40
2022-10-14T11:02:03.216Z,17.30
2022-10-14T11:04:37.514Z,17.30
2022-10-14T11:07:47.433Z,17.20
2022-10-14T11:10:42.839Z,17.10
2022-10-14T11:13:27.226Z,16.90
2022-10-14T11:16:34.386Z,16.90
2022-10-14T11:19:10.943Z,16.80
2022-10-14T11:22:06.320Z,16.70
2022-10-14T11:25:35.517Z,16.80
2022-10-14T11:28:52.737Z,16.70
2022-10-14T11:31:55.599Z,16.70
2022-10-14T11:34:47.360Z,16.70
2022-10-14T11:37:57.684Z,16.80
2022-10-14T11:40:56.277Z,16.90
2022-10-14T11:43:51.686Z,16.90
2022-10-14T11:46:27.696Z,17.00
2022-10-14T11:49:04.124Z,17.10
2022-10-14T11:51:44.015Z,17.30
2022-10-14T11:54:25.093Z,17.40
2022-10-14T11:57:23.914Z,17.50
2022-10-14T12:00:32.631Z,17.60
2022-10-14T12:03:19.784Z,17.60
2022-10-14T12:05:55.642Z,17.80
2022-10-14T12:09:44.027Z,17.80
2022-10-14T12:12:26.484Z,17.80
2022-10-14T12:15:10.917Z,17.70
2022-10-14T12:17:46.414Z,17.70
2022-10-14T12:20:27.520Z,17.80
2022-10-14T12:23:00.575Z,17.70
2022-10-14T12:25:52.501Z,17.70
2022-10-14T12:28:24.009Z,17.60
2022-10-14T12:30:52.552Z,17.60
2022-10-14T12:33:29.944Z,17.40
2022-10-14T12:36:04.444Z,17.40
2022-10-14T12:38:48.475Z,17.40
2022-10-14T12:41:37.269Z,17.50
2022-10-14T12:44:25.326Z,17.50
2022-10-14T12:46:54.448Z,17.50
2022-10-14T12:49:25.514Z,17.50
2022-10-14T12:52:23.095Z,17.50
2022-10-14T12:57:26.481Z,17.50
2022-10-14T12:59:56.511Z,17.50
2022-10-14T13:02:32.658Z,17.50
2022-10-14T13:05:07.564Z,17.50
2022-10-14T13:08:20.088Z,17.40
2022-10-14T13:11:00.395Z,17.40
2022-10-14T13:13:52.706Z,17.30
2022-10-14T13:16:29.664Z,17.00
2022-10-14T13:18:59.453Z,17.40
2022-10-14T13:21:52.118Z,17.40
2022-10-14T13:24:29.837Z,17.50
2022-10-14T13:27:22.676Z,17.50
2022-10-14T13:30:09.684Z,17.60
2022-10-14T13:32:52.678Z,17.60
2022-10-14T13:35:37.682Z,17.60
2022-10-14T13:38:12.480Z,17.70
2022-10-14T13:40:58.557Z,17.70
2022-10-14T13:43:28.843Z,17.70
2022-10-14T13:46:03.948Z,17.70
2022-10-14T13:48:47.965Z,17.60
2022-10-14T13:51:40.666Z,17.60
2022-10-14T13:54:25.986Z,17.50
2022-10-14T13:57:34.686Z,17.50
2022-10-14T14:02:56.712Z,17.30
2022-10-14T14:06:07.142Z,17.30
2022-10-14T14:09:01.652Z,17.30
2022-10-14T14:11:39.353Z,17.30
2022-10-14T14:14:17.624Z,17.30
2022-10-14T14:16:54.611Z,17.30
2022-10-14T14:19:34.351Z,17.30
2022-10-14T14:22:14.357Z,17.30
2022-10-14T14:24:42.718Z,17.30
2022-10-14T14:27:15.935Z,17.40
2022-10-14T14:29:48.190Z,17.50
2022-10-14T14:32:36.412Z,17.50
2022-10-14T14:35:12.111Z,17.50
2022-10-14T14:37:55.176Z,17.40
2022-10-14T14:40:31.212Z,17.40
2022-10-14T14:43:02.199Z,17.40
2022-10-14T14:45:43.976Z,17.40
2022-10-14T14:48:14.077Z,17.30
2022-10-14T14:50:44.130Z,17.20
2022-10-14T14:53:21.196Z,17.10
2022-10-14T14:56:00.446Z,17.10
2022-10-14T14:58:30.364Z,17.10
2022-10-14T15:00:59.322Z,17.00
2022-10-14T15:03:31.630Z,17.00
2022-10-14T15:06:05.768Z,16.90
2022-10-14T15:08:41.508Z,16.90
2022-10-14T15:11:11.022Z,16.80
2022-10-14T15:13:38.693Z,16.80
2022-10-14T15:16:09.404Z,16.70
2022-10-14T15:18:41.060Z,16.80
2022-10-14T15:21:11.745Z,16.80
2022-10-14T15:23:42.867Z,16.90
2022-10-14T15:26:38.362Z,16.90
2022-10-14T15:29:16.975Z,16.80
2022-10-14T15:32:14.946Z,16.80
2022-10-14T15:34:46.656Z,16.70
2022-10-14T15:37:14.748Z,16.20
2022-10-14T15:40:03.594Z,16.60
2022-10-14T15:42:32.089Z,16.60
2022-10-14T15:44:59.927Z,16.50
2022-10-14T15:47:29.504Z,16.50
2022-10-14T15:49:57.618Z,16.50
2022-10-14T15:52:27.039Z,16.40
2022-10-14T15:55:02.050Z,16.40
2022-10-14T15:57:30.943Z,16.40
2022-10-14T15:59:59.050Z,16.40
2022-10-14T16:02:36.091Z,16.40
2022-10-14T16:05:20.896Z,16.40
2022-10-14T16:07:55.975Z,16.30
2022-10-14T16:10:32.070Z,16.30
2022-10-14T16:13:06.761Z,16.30
2022-10-14T16:16:02.400Z,16.20
2022-10-14T16:18:39.796Z,16.20
2022-10-14T16:21:17.498Z,16.20
2022-10-14T16:23:54.990Z,16.10
2022-10-14T16:26:43.943Z,16.10
2022-10-14T16:29:50.846Z,16.10
2022-10-14T16:33:03.167Z,16.00
2022-10-14T16:35:37.056Z,16.00
2022-10-14T16:38:11.992Z,16.00
2022-10-14T16:40:47.035Z,15.90
2022-10-14T16:43:18.386Z,15.90
2022-10-14T16:49:02.897Z,15.90
2022-10-14T16:51:39.629Z,15.90
2022-10-14T16:54:20.720Z,15.80
2022-10-14T16:57:07.029Z,15.90
2022-10-14T17:02:56.626Z,15.80
2022-10-14T17:05:46.814Z,15.80
2022-10-14T17:08:30.385Z,15.80
2022-10-14T17:14:30.448Z,15.80
2022-10-14T17:17:29.505Z,15.70
2022-10-14T17:20:08.502Z,15.70
2022-10-14T17:22:37.114Z,15.70
2022-10-14T17:25:05.446Z,15.70
2022-10-14T17:27:33.311Z,15.70
2022-10-14T17:30:01.294Z,15.70
2022-10-14T17:32:33.620Z,15.70
2022-10-14T17:35:01.345Z,15.70
2022-10-14T17:37:40.760Z,15.70
2022-10-14T17:40:20.961Z,15.60
2022-10-14T17:45:47.473Z,15.40
2022-10-14T17:48:17.770Z,15.30
2022-10-14T17:50:48.864Z,15.20
2022-10-14T17:53:20.611Z,15.10
2022-10-14T17:55:49.314Z,15.00
2022-10-14T17:58:18.423Z,14.90
2022-10-14T18:00:49.691Z,14.90
2022-10-14T18:03:18.576Z,14.80
2022-10-14T18:05:53.116Z,14.70
2022-10-14T18:08:20.950Z,14.70
2022-10-14T18:10:52.400Z,14.60
2022-10-14T18:13:23.438Z,14.60
2022-10-14T18:15:51.523Z,14.60
2022-10-14T18:18:19.223Z,14.60
2022-10-14T18:20:47.084Z,14.60
2022-10-14T18:23:15.093Z,14.60
2022-10-14T18:25:42.863Z,14.50
2022-10-14T18:28:11.410Z,14.50
2022-10-14T18:30:39.409Z,14.50
2022-10-14T18:33:07.111Z,14.50
2022-10-14T18:35:34.878Z,14.50
2022-10-14T18:38:02.655Z,14.50
2022-10-14T18:40:30.575Z,14.40
2022-10-14T18:42:59.720Z,14.40
2022-10-14T18:45:27.547Z,14.40
2022-10-14T18:47:55.413Z,14.40
2022-10-14T18:50:23.087Z,14.40
2022-10-14T18:52:52.480Z,14.40
2022-10-14T18:55:20.129Z,14.40
2022-10-14T18:57:47.925Z,14.40
2022-10-14T19:00:18.209Z,14.30
2022-10-14T19:02:46.096Z,14.30
2022-10-14T19:05:14.336Z,14.20
2022-10-14T19:07:42.038Z,14.10
2022-10-14T19:10:10.144Z,14.10
2022-10-14T19:12:43.669Z,14.00
2022-10-14T19:15:12.698Z,13.90
2022-10-14T19:17:41.472Z,13.80
2022-10-14T19:20:16.144Z,13.70
2022-10-14T19:22:45.750Z,13.60
2022-10-14T19:25:13.640Z,13.60
2022-10-14T19:27:41.264Z,13.50
2022-10-14T19:30:09.868Z,13.50
2022-10-14T19:32:37.948Z,13.40
2022-10-14T19:35:06.246Z,13.30
2022-10-14T19:37:37.016Z,13.30
2022-10-14T19:40:05.414Z,13.20
2022-10-14T19:42:34.541Z,13.20
2022-10-14T19:45:03.473Z,13.10
2022-10-14T19:47:31.481Z,13.10
2022-10-14T19:49:59.163Z,13.10
2022-10-14T19:52:27.122Z,13.00
2022-10-14T19:54:54.778Z,13.00
2022-10-14T19:57:22.653Z,12.90
2022-10-14T19:59:50.690Z,12.90
2022-10-14T20:02:19.891Z,12.90
2022-10-14T20:04:47.676Z,12.80
2022-10-14T20:07:16.030Z,12.80
2022-10-14T20:09:43.952Z,12.80
2022-10-14T20:12:12.751Z,12.70
2022-10-14T20:14:40.386Z,12.70
2022-10-14T20:17:08.135Z,12.70
2022-10-14T20:19:37.963Z,12.60
2022-10-14T20:22:05.869Z,12.60
2022-10-14T20:24:33.625Z,12.50
2022-10-14T20:27:01.343Z,12.40
2022-10-14T20:29:29.247Z,12.40
2022-10-14T20:31:57.119Z,12.30
2022-10-14T20:34:25.523Z,12.30
2022-10-14T20:36:53.585Z,12.30
2022-10-14T20:39:21.879Z,12.20
2022-10-14T20:41:50.428Z,12.10
2022-10-14T20:44:25.231Z,12.10
2022-10-14T20:46:52.928Z,12.00
2022-10-14T20:49:21.029Z,12.00
2022-10-14T20:51:54.686Z,11.90
2022-10-14T20:54:24.984Z,11.90
2022-10-14T20:56:57.786Z,11.90
2022-10-14T20:59:29.189Z,11.80
2022-10-14T21:01:58.979Z,11.80
2022-10-14T21:04:26.720Z,11.80
2022-10-14T21:06:54.733Z,11.70
2022-10-14T21:09:23.580Z,11.70
2022-10-14T21:11:51.450Z,11.70
2022-10-14T21:14:19.886Z,11.70
2022-10-14T21:16:47.899Z,11.70
2022-10-14T21:19:15.810Z,11.70
2022-10-14T21:21:49.302Z,11.60
2022-10-14T21:24:19.390Z,11.60
2022-10-14T21:26:56.338Z,11.50
2022-10-14T21:29:26.251Z,11.50
2022-10-14T21:31:56.451Z,11.50
2022-10-14T21:34:28.424Z,11.40
2022-10-14T21:36:56.928Z,11.40
2022-10-14T21:39:24.896Z,11.40
2022-10-14T21:41:53.212Z,11.40
2022-10-14T21:44:21.593Z,11.40
2022-10-14T21:46:49.831Z,11.40
2022-10-14T21:49:18.323Z,11.40
2022-10-14T21:51:47.188Z,11.40
2022-10-14T21:54:15.267Z,11.40
2022-10-14T21:56:45.416Z,11.40
2022-10-14T21:59:13.567Z,11.30
2022-10-14T22:01:42.162Z,11.30
2022-10-14T22:04:13.820Z,11.20
2022-10-14T22:06:44.411Z,11.10
2022-10-14T22:09:12.093Z,11.10
2022-10-14T22:11:41.169Z,11.00
2022-10-14T22:14:15.481Z,10.90
2022-10-14T22:16:50.749Z,10.90
2022-10-14T22:19:18.731Z,10.90
2022-10-14T22:21:46.551Z,10.80
2022-10-14T22:24:14.722Z,10.80
2022-10-14T22:26:46.443Z,10.80
2022-10-14T22:29:16.674Z,10.80
2022-10-14T22:31:45.811Z,10.90
2022-10-14T22:34:24.112Z,10.80
2022-10-14T22:36:53.604Z,10.80
2022-10-14T22:39:21.407Z,10.80
2022-10-14T22:41:49.803Z,10.90
2022-10-14T22:44:17.610Z,10.80
2022-10-14T22:46:46.346Z,10.80
2022-10-14T22:49:14.270Z,10.80
2022-10-14T22:51:43.928Z,10.80
2022-10-14T22:54:12.113Z,10.80
2022-10-14T22:56:40.011Z,10.80
2022-10-14T22:59:10.958Z,10.80
2022-10-14T23:01:41.067Z,10.80
2022-10-14T23:04:10.180Z,10.80
2022-10-14T23:06:39.563Z,10.80
2022-10-14T23:09:07.652Z,10.70
2022-10-14T23:11:35.817Z,10.70
2022-10-14T23:14:07.046Z,10.70
2022-10-14T23:16:36.488Z,10.70
2022-10-14T23:19:04.240Z,10.60
2022-10-14T23:21:34.985Z,10.50
2022-10-14T23:24:04.287Z,10.50
2022-10-14T23:26:37.251Z,10.40
2022-10-14T23:29:09.058Z,10.30
2022-10-14T23:31:39.349Z,10.30
2022-10-14T23:34:12.782Z,10.20
2022-10-14T23:36:41.180Z,10.20
2022-10-14T23:39:09.490Z,10.20
2022-10-14T23:41:37.393Z,10.10
2022-10-14T23:44:05.248Z,10.10
2022-10-14T23:46:33.094Z,10.10
2022-10-14T23:49:13.941Z,10.00
2022-10-14T23:51:49.766Z,10.00
2022-10-14T23:54:17.456Z,9.90
2022-10-14T23:56:45.901Z,9.90
2022-10-14T23:59:13.960Z,9.90
